Time;durP1;ratioP1;P1;durP2;ratioP2;P2;SDS_P1;SDS_P2;PMS_P1;PMS_P2;Temp;Humidity;BMP_temperature;BMP_pressure;BME280_temperature;BME280_humidity;BME280_pressure;Samples;Min_cycle;Max_cycle;Signal;HPM_P1;HPM_P2
2022/09/07 00:01:18;;;;;;;10.13;4.45;;;16.30;99.90;;;;;;5090941;28;20024;-75
2022/09/07 00:03:44;;;;;;;8.85;4.38;;;16.30;99.90;;;;;;5090870;28;20113;-76
2022/09/07 00:06:12;;;;;;;5.20;4.35;;;16.30;99.90;;;;;;5091968;28;20543;-73
2022/09/07 00:08:39;;;;;;;8.52;4.75;;;16.20;99.90;;;;;;5092033;28;20341;-74
2022/09/07 00:11:10;;;;;;;4.90;3.95;;;16.20;99.90;;;;;;5091910;28;20605;-74
2022/09/07 00:13:37;;;;;;;5.63;3.67;;;16.20;99.90;;;;;;5091861;28;20043;-74
2022/09/07 00:16:06;;;;;;;5.43;3.63;;;16.20;99.90;;;;;;5091826;28;20020;-76
2022/09/07 00:18:32;;;;;;;6.63;3.97;;;16.20;99.90;;;;;;5091553;28;20108;-74
2022/09/07 00:21:04;;;;;;;6.38;3.90;;;16.10;99.90;;;;;;5090558;28;20497;-74
2022/09/07 00:23:31;;;;;;;4.50;3.53;;;16.10;99.90;;;;;;5091845;28;20020;-75
2022/09/07 00:26:10;;;;;;;6.35;3.67;;;16.00;99.90;;;;;;5090708;28;20119;-75
2022/09/07 00:28:36;;;;;;;6.00;3.75;;;16.00;99.90;;;;;;5090278;28;20425;-77
2022/09/07 00:31:03;;;;;;;6.75;3.67;;;16.00;99.90;;;;;;5091621;28;20032;-75
2022/09/07 00:33:29;;;;;;;8.45;4.30;;;16.00;99.90;;;;;;5090185;28;20088;-75
2022/09/07 00:35:57;;;;;;;6.28;3.72;;;15.90;99.90;;;;;;5091599;28;20020;-74
2022/09/07 00:38:23;;;;;;;3.65;3.35;;;15.90;99.90;;;;;;5091311;28;20071;-76
2022/09/07 00:40:49;;;;;;;4.47;3.88;;;15.90;99.90;;;;;;5091535;28;20455;-73
2022/09/07 00:43:27;;;;;;;6.00;4.07;;;15.90;99.90;;;;;;5091565;28;20421;-74
2022/09/07 00:45:52;;;;;;;4.57;3.70;;;15.90;99.90;;;;;;5090146;28;20527;-75
2022/09/07 00:48:19;;;;;;;8.60;4.22;;;16.00;99.90;;;;;;5091350;28;20028;-74
2022/09/07 00:50:53;;;;;;;6.00;3.85;;;16.00;99.90;;;;;;5091361;28;20073;-75
2022/09/07 00:53:36;;;;;;;4.93;3.28;;;16.00;99.90;;;;;;5090098;28;20174;-74
2022/09/07 00:56:03;;;;;;;9.18;4.03;;;15.90;99.90;;;;;;5094154;28;20383;-74
2022/09/07 00:58:30;;;;;;;12.45;3.92;;;15.90;99.90;;;;;;5095116;28;20028;-74
2022/09/07 01:00:56;;;;;;;14.48;3.70;;;15.80;99.90;;;;;;5095147;28;20035;-76
2022/09/07 01:03:26;;;;;;;16.55;4.68;;;15.80;99.90;;;;;;5095065;28;20479;-73
2022/09/07 01:06:17;;;;;;;22.23;4.47;;;15.80;99.90;;;;;;5095099;28;20032;-74
2022/09/07 01:08:45;;;;;;;40.78;4.60;;;15.80;99.90;;;;;;5094160;28;20039;-74
2022/09/07 01:11:11;;;;;;;9.32;3.83;;;15.80;99.90;;;;;;5094976;28;20039;-75
2022/09/07 01:13:39;;;;;;;9.82;4.18;;;15.80;99.90;;;;;;5094741;28;20043;-74
2022/09/07 01:16:32;;;;;;;16.33;4.13;;;15.80;99.90;;;;;;5094976;28;20110;-74
2022/09/07 01:19:25;;;;;;;14.82;4.70;;;15.80;99.90;;;;;;5094484;28;20437;-76
2022/09/07 01:22:09;;;;;;;9.50;4.20;;;15.80;99.90;;;;;;5094879;28;20027;-75
2022/09/07 01:24:39;;;;;;;14.27;3.90;;;15.80;99.90;;;;;;5095062;28;20406;-74
2022/09/07 01:27:05;;;;;;;13.27;4.63;;;15.70;99.90;;;;;;5094579;28;20040;-76
2022/09/07 01:29:33;;;;;;;5.85;4.05;;;15.70;99.90;;;;;;5094607;28;20070;-75
2022/09/07 01:32:23;;;;;;;8.68;4.53;;;15.70;99.90;;;;;;5094366;28;20040;-74
2022/09/07 01:34:52;;;;;;;17.10;5.13;;;15.70;99.90;;;;;;5094392;28;20039;-74
2022/09/07 01:38:03;;;;;;;11.90;4.40;;;15.70;99.90;;;;;;5094534;28;20036;-75
2022/09/07 01:40:48;;;;;;;8.02;4.80;;;15.60;99.90;;;;;;5094339;28;20112;-76
2022/09/07 01:43:31;;;;;;;11.68;4.10;;;15.60;99.90;;;;;;5094107;28;20016;-76
2022/09/07 01:46:00;;;;;;;8.57;4.40;;;15.60;99.90;;;;;;5092812;28;20091;-74
2022/09/07 01:48:26;;;;;;;10.52;4.40;;;15.60;99.90;;;;;;5093989;28;20028;-73
2022/09/07 01:51:04;;;;;;;9.18;4.30;;;15.50;99.90;;;;;;5093995;28;20023;-74
2022/09/07 01:53:49;;;;;;;5.22;4.47;;;15.50;99.90;;;;;;5092773;28;20123;-73
2022/09/07 01:56:39;;;;;;;10.60;4.00;;;15.50;99.90;;;;;;5094058;28;20035;-74
2022/09/07 01:59:25;;;;;;;6.50;4.30;;;15.40;99.90;;;;;;5092165;28;20336;-75
2022/09/07 02:02:00;;;;;;;5.03;4.53;;;15.40;99.90;;;;;;5093215;28;20362;-74
2022/09/07 02:05:07;;;;;;;4.50;3.97;;;15.40;99.90;;;;;;5093984;28;20051;-74
2022/09/07 02:07:39;;;;;;;;;;;15.30;99.90;;;;;;5093188;28;20036;-75
2022/09/07 02:10:17;;;;;;;8.02;4.55;;;15.40;99.90;;;;;;5093788;28;19957;-74
2022/09/07 02:12:52;;;;;;;6.75;4.45;;;15.40;99.90;;;;;;5093739;28;20032;-75
2022/09/07 02:15:25;;;;;;;7.25;5.13;;;15.40;99.90;;;;;;5093611;28;20016;-75
2022/09/07 02:17:57;;;;;;;11.63;4.50;;;15.30;99.90;;;;;;5093761;28;20017;-76
2022/09/07 02:20:30;;;;;;;5.75;4.68;;;15.30;99.90;;;;;;5093348;28;20040;-74
2022/09/07 02:22:59;;;;;;;7.05;4.45;;;15.30;99.90;;;;;;5093395;28;20028;-74
2022/09/07 02:25:30;;;;;;;13.32;4.97;;;15.30;99.90;;;;;;5093408;28;20012;-74
2022/09/07 02:28:08;;;;;;;6.13;5.05;;;15.20;99.90;;;;;;5092005;28;20034;-75
2022/09/07 02:30:34;;;;;;;4.90;4.38;;;15.20;99.90;;;;;;5093306;28;20017;-75
2022/09/07 02:33:00;;;;;;;5.00;4.45;;;15.20;99.90;;;;;;5093318;28;20028;-75
2022/09/07 02:35:26;;;;;;;5.28;4.05;;;15.20;99.90;;;;;;5093265;28;20032;-74
2022/09/07 02:37:52;;;;;;;4.63;4.03;;;15.20;99.90;;;;;;5093276;28;20039;-75
2022/09/07 02:40:17;;;;;;;5.63;3.85;;;15.20;99.90;;;;;;5093184;28;20024;-75
2022/09/07 02:42:45;;;;;;;5.40;3.92;;;15.20;99.90;;;;;;5092947;28;20428;-74
2022/09/07 02:45:12;;;;;;;4.85;3.60;;;15.20;99.90;;;;;;5092909;28;20028;-75
2022/09/07 02:47:47;;;;;;;6.13;3.50;;;15.20;99.90;;;;;;5091705;28;20770;-75
2022/09/07 02:50:28;;;;;;;4.83;4.10;;;15.20;99.90;;;;;;5093090;28;20020;-75
2022/09/07 02:53:11;;;;;;;4.30;3.90;;;15.10;99.90;;;;;;5092990;28;20284;-73
2022/09/07 02:56:08;;;;;;;8.60;4.20;;;15.10;99.90;;;;;;5092792;28;20145;-72
2022/09/07 02:58:46;;;;;;;4.57;4.15;;;15.10;99.90;;;;;;5092796;28;20059;-77
2022/09/07 03:01:36;;;;;;;5.57;4.53;;;15.10;99.90;;;;;;5092748;28;20058;-74
2022/09/07 03:04:36;;;;;;;15.70;5.00;;;15.10;99.90;;;;;;5092888;28;20023;-75
2022/09/07 03:07:19;;;;;;;6.50;4.57;;;15.10;99.90;;;;;;5091189;28;20020;-75
2022/09/07 03:09:49;;;;;;;8.60;5.20;;;15.00;99.90;;;;;;5091480;28;20107;-76
2022/09/07 03:12:15;;;;;;;6.07;4.68;;;15.00;99.90;;;;;;5092533;28;20040;-75
2022/09/07 03:14:42;;;;;;;5.53;4.70;;;15.00;99.90;;;;;;5092809;28;20046;-73
2022/09/07 03:17:09;;;;;;;7.78;4.43;;;15.00;99.90;;;;;;5091721;28;20028;-75
2022/09/07 03:19:35;;;;;;;6.38;4.47;;;15.00;99.90;;;;;;5092193;28;20123;-74
2022/09/07 03:22:01;;;;;;;4.72;4.13;;;15.00;99.90;;;;;;5092603;28;20384;-75
2022/09/07 03:24:27;;;;;;;5.20;4.25;;;15.00;99.90;;;;;;5092470;28;20081;-73
2022/09/07 03:26:52;;;;;;;9.55;4.60;;;14.90;99.90;;;;;;5092534;28;20028;-75
2022/09/07 03:29:18;;;;;;;4.35;3.95;;;14.90;99.90;;;;;;5092289;28;20024;-73
2022/09/07 03:31:45;;;;;;;6.00;4.72;;;14.90;99.90;;;;;;5092343;28;20028;-73
2022/09/07 03:34:11;;;;;;;11.65;4.53;;;14.90;99.90;;;;;;5092619;28;20035;-76
2022/09/07 03:36:37;;;;;;;10.10;4.50;;;14.90;99.90;;;;;;5092160;28;20020;-74
2022/09/07 03:39:04;;;;;;;13.60;6.03;;;14.90;99.90;;;;;;5092227;28;20562;-75
2022/09/07 03:41:29;;;;;;;7.28;4.28;;;14.80;99.90;;;;;;5092184;28;20020;-73
2022/09/07 03:43:55;;;;;;;6.50;5.10;;;14.80;99.90;;;;;;5092149;28;20047;-73
2022/09/07 03:46:21;;;;;;;5.70;4.35;;;14.80;99.90;;;;;;5092317;28;20027;-74
2022/09/07 03:48:48;;;;;;;4.68;4.18;;;14.80;99.90;;;;;;5092028;28;20058;-76
2022/09/07 03:51:15;;;;;;;7.30;4.57;;;14.80;99.90;;;;;;5092017;28;20526;-73
2022/09/07 03:53:43;;;;;;;5.35;3.17;;;14.80;99.90;;;;;;5091948;28;20096;-74
2022/09/07 03:56:21;;;;;;;3.90;3.50;;;14.80;99.90;;;;;;5092022;28;20149;-74
2022/09/07 03:58:48;;;;;;;3.53;3.22;;;14.80;99.90;;;;;;5090453;28;20099;-76
2022/09/07 04:01:17;;;;;;;3.47;3.10;;;14.80;99.90;;;;;;5092002;28;20061;-74
2022/09/07 04:03:44;;;;;;;4.15;3.75;;;14.80;99.90;;;;;;5091890;28;20094;-75
2022/09/07 04:06:10;;;;;;;5.43;3.10;;;14.80;99.90;;;;;;5091723;28;20042;-74
2022/09/07 04:08:37;;;;;;;4.50;3.55;;;14.70;99.90;;;;;;5091954;28;20024;-74
2022/09/07 04:11:04;;;;;;;6.90;3.40;;;14.70;99.90;;;;;;5091922;28;20040;-75
2022/09/07 04:13:30;;;;;;;6.15;3.60;;;14.70;99.90;;;;;;5091917;28;20081;-74
2022/09/07 04:15:56;;;;;;;4.05;3.47;;;14.70;99.90;;;;;;5091884;28;20031;-75
2022/09/07 04:18:23;;;;;;;4.40;3.60;;;14.60;99.90;;;;;;5091588;28;20028;-74
2022/09/07 04:20:49;;;;;;;4.60;4.05;;;14.60;99.90;;;;;;5092101;28;20363;-76
2022/09/07 04:23:16;;;;;;;3.85;3.40;;;14.60;99.90;;;;;;5091748;28;20024;-74
2022/09/07 04:25:51;;;;;;;4.68;3.60;;;14.70;99.90;;;;;;5091927;28;20016;-75
2022/09/07 04:28:19;;;;;;;7.00;4.05;;;14.70;99.90;;;;;;5091584;28;20028;-75
2022/09/07 04:30:45;;;;;;;7.47;3.80;;;14.60;99.90;;;;;;5095566;28;20024;-74
2022/09/07 04:33:12;;;;;;;8.88;4.30;;;14.70;99.90;;;;;;5095637;28;20154;-74
2022/09/07 04:35:39;;;;;;;8.60;4.20;;;14.70;99.90;;;;;;5095535;28;20024;-74
2022/09/07 04:38:06;;;;;;;4.00;3.63;;;14.70;99.90;;;;;;5095472;28;20026;-73
2022/09/07 04:40:31;;;;;;;5.13;3.60;;;14.70;99.90;;;;;;5095384;28;20019;-76
2022/09/07 04:42:57;;;;;;;8.48;5.85;;;14.70;99.90;;;;;;5094387;28;20024;-76
2022/09/07 04:45:23;;;;;;;4.28;3.17;;;14.70;99.90;;;;;;5095446;28;20016;-73
2022/09/07 04:47:49;;;;;;;5.32;3.15;;;14.70;99.90;;;;;;5095292;28;20032;-74
2022/09/07 04:50:16;;;;;;;6.43;3.30;;;14.70;99.90;;;;;;5094342;28;20055;-74
2022/09/07 04:52:43;;;;;;;7.10;3.72;;;14.70;99.90;;;;;;5093826;28;20483;-74
2022/09/07 04:55:10;;;;;;;4.32;3.67;;;14.70;99.90;;;;;;5094072;28;20031;-74
2022/09/07 04:57:36;;;;;;;4.68;4.20;;;14.70;99.90;;;;;;5093759;28;20020;-74
2022/09/07 05:00:07;;;;;;;7.30;3.58;;;14.70;99.90;;;;;;5095169;28;20024;-73
2022/09/07 05:02:32;;;;;;;7.13;3.42;;;14.70;99.90;;;;;;5095191;28;20024;-74
2022/09/07 05:04:58;;;;;;;4.43;3.95;;;14.80;99.90;;;;;;5095077;28;20344;-73
2022/09/07 05:07:24;;;;;;;4.05;3.47;;;14.70;99.90;;;;;;5093582;28;20371;-73
2022/09/07 05:09:50;;;;;;;3.70;3.22;;;14.80;99.90;;;;;;5094823;28;20546;-73
2022/09/07 05:12:15;;;;;;;7.22;3.63;;;14.80;99.90;;;;;;5094945;28;20382;-76
2022/09/07 05:14:41;;;;;;;4.35;3.33;;;14.80;99.90;;;;;;5095108;28;20032;-74
2022/09/07 05:17:07;;;;;;;11.15;5.35;;;15.30;99.90;;;;;;5094985;28;20024;-75
2022/09/07 05:19:33;;;;;;;14.07;6.15;;;16.20;99.90;;;;;;5097737;28;20062;-77
2022/09/07 05:21:59;;;;;;;7.90;5.65;;;16.20;99.90;;;;;;5096444;28;20032;-75
2022/09/07 05:24:28;;;;;;;5.40;4.82;;;16.60;99.90;;;;;;5097100;28;20426;-74
2022/09/07 05:26:53;;;;;;;4.95;4.45;;;16.90;99.90;;;;;;5093896;28;20432;-74
2022/09/07 05:29:20;;;;;;;4.72;4.32;;;17.10;99.90;;;;;;5094558;28;20103;-74
2022/09/07 05:31:47;;;;;;;5.30;4.80;;;17.00;99.90;;;;;;5094644;28;20020;-74
2022/09/07 05:34:14;;;;;;;4.15;3.75;;;17.10;99.90;;;;;;5094723;28;20509;-75
2022/09/07 05:36:40;;;;;;;3.60;3.28;;;17.20;99.90;;;;;;5094619;28;20024;-74
2022/09/07 05:39:07;;;;;;;3.17;2.88;;;17.20;99.90;;;;;;5094662;28;20023;-73
2022/09/07 05:41:33;;;;;;;3.08;2.78;;;17.00;99.90;;;;;;5093518;28;20517;-74
2022/09/07 05:43:59;;;;;;;3.63;3.33;;;17.10;99.90;;;;;;5094517;28;20024;-73
2022/09/07 05:46:25;;;;;;;3.25;2.95;;;17.30;99.90;;;;;;5094679;28;20413;-73
2022/09/07 05:48:50;;;;;;;3.40;3.10;;;17.60;99.90;;;;;;5094291;28;20490;-74
2022/09/07 05:51:16;;;;;;;2.88;2.67;;;17.90;99.90;;;;;;5094750;28;20158;-73
2022/09/07 05:53:44;;;;;;;2.97;2.78;;;18.00;99.90;;;;;;5094244;28;20028;-73
2022/09/07 05:56:11;;;;;;;3.15;2.85;;;18.10;99.90;;;;;;5094374;28;20028;-74
2022/09/07 05:58:37;;;;;;;3.05;2.70;;;18.20;99.90;;;;;;5094024;28;20463;-74
2022/09/07 06:01:07;;;;;;;2.65;2.22;;;;;;;;;;5094148;28;20028;-74
2022/09/07 06:03:35;;;;;;;3.50;3.20;;;18.60;99.90;;;;;;5094288;28;20026;-74
2022/09/07 06:06:03;;;;;;;3.75;3.45;;;18.50;99.90;;;;;;5093997;28;20020;-74
2022/09/07 06:08:30;;;;;;;3.10;2.80;;;18.60;99.90;;;;;;5092572;28;20032;-73
2022/09/07 06:10:56;;;;;;;2.65;2.45;;;18.60;99.90;;;;;;5094176;28;20073;-75
2022/09/07 06:13:22;;;;;;;3.83;3.53;;;18.70;99.90;;;;;;5093937;28;20032;-75
2022/09/07 06:15:47;;;;;;;4.45;2.60;;;18.70;99.90;;;;;;5093878;28;20024;-74
2022/09/07 06:18:13;;;;;;;3.55;2.85;;;18.60;99.90;;;;;;5093394;28;20115;-75
2022/09/07 06:20:39;;;;;;;2.95;2.67;;;18.70;99.90;;;;;;5094088;28;20482;-75
2022/09/07 06:23:06;;;;;;;2.75;2.55;;;;;;;;;;5093965;28;20028;-75
2022/09/07 06:25:32;;;;;;;2.47;2.28;;;18.90;99.90;;;;;;5093915;28;20051;-75
2022/09/07 06:27:58;;;;;;;3.58;2.78;;;19.10;99.90;;;;;;5093436;28;20055;-75
2022/09/07 06:30:24;;;;;;;6.18;4.60;;;19.20;99.90;;;;;;5093853;28;20394;-75
2022/09/07 06:32:50;;;;;;;3.15;2.90;;;19.20;99.90;;;;;;5093669;28;20088;-75
2022/09/07 06:35:16;;;;;;;6.88;2.97;;;19.00;99.90;;;;;;5093532;28;20094;-76
2022/09/07 06:37:42;;;;;;;3.00;2.75;;;18.90;99.90;;;;;;5093459;28;20103;-76
2022/09/07 06:40:09;;;;;;;3.05;2.80;;;18.70;99.90;;;;;;5093390;28;20027;-77
2022/09/07 06:42:35;;;;;;;2.80;2.60;;;18.60;99.90;;;;;;5093558;28;20023;-77
2022/09/07 06:45:01;;;;;;;4.50;3.22;;;18.50;99.90;;;;;;5093457;28;20021;-75
2022/09/07 06:47:27;;;;;;;3.42;3.13;;;18.50;99.90;;;;;;5093114;28;20032;-76
2022/09/07 06:49:52;;;;;;;3.53;3.10;;;18.50;99.90;;;;;;5093288;28;20091;-75
2022/09/07 06:52:18;;;;;;;3.75;3.20;;;18.50;99.90;;;;;;5093111;28;20036;-75
2022/09/07 06:54:44;;;;;;;5.15;4.65;;;18.50;99.90;;;;;;5093204;28;20016;-77
2022/09/07 06:57:10;;;;;;;4.35;3.95;;;18.50;99.90;;;;;;5093085;28;20032;-76
2022/09/07 06:59:36;;;;;;;8.50;4.38;;;18.60;99.90;;;;;;5093547;28;20020;-75
2022/09/07 07:02:03;;;;;;;4.20;3.80;;;18.70;99.90;;;;;;5091679;28;20433;-76
2022/09/07 07:04:29;;;;;;;4.55;4.15;;;18.70;99.90;;;;;;5093474;28;20505;-74
2022/09/07 07:06:55;;;;;;;6.22;3.85;;;18.80;99.90;;;;;;5093209;28;20020;-78
2022/09/07 07:09:20;;;;;;;4.53;3.95;;;18.90;99.90;;;;;;5093084;28;20034;-77
2022/09/07 07:11:47;;;;;;;3.83;3.53;;;19.00;99.90;;;;;;5093074;28;20028;-75
2022/09/07 07:14:16;;;;;;;7.85;5.47;;;19.00;99.90;;;;;;5093050;28;20063;-77
2022/09/07 07:16:42;;;;;;;6.13;4.05;;;19.20;99.90;;;;;;5093181;28;20563;-76
2022/09/07 07:19:08;;;;;;;5.38;4.88;;;19.30;99.90;;;;;;5092781;28;20122;-76
2022/09/07 07:21:34;;;;;;;7.22;4.35;;;19.40;99.90;;;;;;5093174;28;20058;-76
2022/09/07 07:23:59;;;;;;;5.50;4.20;;;19.50;99.90;;;;;;5092529;28;20023;-76
2022/09/07 07:26:25;;;;;;;6.55;3.90;;;19.60;99.90;;;;;;5091592;28;20024;-75
2022/09/07 07:28:53;;;;;;;6.32;3.65;;;19.70;99.90;;;;;;5092874;28;20538;-75
2022/09/07 07:31:22;;;;;;;5.78;4.80;;;19.70;99.90;;;;;;5092707;28;20387;-76
2022/09/07 07:33:48;;;;;;;6.88;4.05;;;19.70;99.90;;;;;;5092586;28;20405;-76
2022/09/07 07:36:17;;;;;;;4.93;4.50;;;19.80;99.90;;;;;;5091437;28;20027;-77
2022/09/07 07:38:45;;;;;;;4.07;3.67;;;20.00;99.90;;;;;;5092490;28;20020;-78
2022/09/07 07:41:11;;;;;;;4.45;3.88;;;20.00;99.90;;;;;;5092835;28;20020;-76
2022/09/07 07:43:37;;;;;;;8.38;4.57;;;20.10;99.90;;;;;;5092569;28;20405;-75
2022/09/07 07:46:03;;;;;;;4.20;3.63;;;20.20;99.90;;;;;;5092482;28;20131;-77
2022/09/07 07:48:30;;;;;;;5.55;4.38;;;20.30;99.90;;;;;;5092613;28;20036;-78
2022/09/07 07:51:05;;;;;;;4.10;3.70;;;20.50;99.90;;;;;;5091212;28;20379;-77
2022/09/07 07:53:34;;;;;;;4.53;4.13;;;20.60;99.90;;;;;;5091459;28;20032;-76
2022/09/07 07:56:02;;;;;;;10.57;3.42;;;20.70;99.90;;;;;;5092133;28;20352;-78
2022/09/07 07:58:29;;;;;;;4.68;3.53;;;20.70;99.90;;;;;;5092300;28;20032;-77
2022/09/07 08:01:00;;;;;;;4.22;3.22;;;20.70;99.90;;;;;;5092425;28;20081;-79
2022/09/07 08:03:26;;;;;;;4.18;3.78;;;20.80;99.90;;;;;;5092490;28;20052;-77
2022/09/07 08:05:53;;;;;;;3.53;3.22;;;21.00;99.90;;;;;;5096590;28;20023;-76
2022/09/07 08:08:19;;;;;;;3.72;3.35;;;21.10;99.90;;;;;;5096325;28;20026;-79
2022/09/07 08:10:46;;;;;;;3.38;3.05;;;21.20;99.90;;;;;;5095950;28;20016;-78
2022/09/07 08:13:12;;;;;;;3.20;2.78;;;21.30;99.90;;;;;;5094815;28;20036;-79
2022/09/07 08:15:44;;;;;;;3.65;3.35;;;21.50;99.90;;;;;;5096176;28;20016;-80
2022/09/07 08:18:14;;;;;;;5.82;3.35;;;21.60;99.90;;;;;;5095769;28;20031;-78
2022/09/07 08:20:40;;;;;;;3.83;3.50;;;21.70;99.90;;;;;;5096343;28;20043;-79
2022/09/07 08:23:07;;;;;;;3.58;2.83;;;21.90;99.90;;;;;;5096068;28;20120;-81
2022/09/07 08:25:36;;;;;;;3.55;3.25;;;22.00;99.90;;;;;;5095036;28;20024;-78
2022/09/07 08:28:03;;;;;;;2.70;2.50;;;22.20;99.90;;;;;;5095755;28;20028;-79
2022/09/07 08:30:28;;;;;;;7.30;2.70;;;22.30;99.90;;;;;;5096098;28;20020;-77
2022/09/07 08:32:54;;;;;;;3.85;2.63;;;22.40;99.90;;;;;;5096053;28;20036;-79
2022/09/07 08:35:19;;;;;;;3.30;2.63;;;22.50;99.90;;;;;;5095579;28;20024;-76
2022/09/07 08:37:45;;;;;;;2.58;2.38;;;22.70;99.90;;;;;;5095713;28;20024;-80
2022/09/07 08:40:18;;;;;;;3.25;2.38;;;22.80;99.90;;;;;;5095580;28;20020;-78
2022/09/07 08:42:56;;;;;;;3.03;2.60;;;22.90;99.90;;;;;;5095699;28;20165;-79
2022/09/07 08:45:43;;;;;;;2.85;2.45;;;23.10;99.90;;;;;;5095633;28;20039;-79
2022/09/07 08:48:15;;;;;;;2.35;2.15;;;23.20;99.90;;;;;;5095305;28;20020;-79
2022/09/07 08:51:03;;;;;;;3.47;2.20;;;23.30;99.90;;;;;;5094174;28;20378;-78
2022/09/07 08:53:29;;;;;;;2.40;2.20;;;23.40;99.90;;;;;;5094276;28;20036;-80
2022/09/07 08:56:04;;;;;;;2.63;2.30;;;23.30;99.90;;;;;;5094159;28;20378;-79
2022/09/07 08:58:30;;;;;;;2.75;2.17;;;23.30;99.90;;;;;;5094266;28;20032;-77
2022/09/07 09:00:55;;;;;;;2.83;1.98;;;23.20;99.90;;;;;;5094243;28;20489;-79
2022/09/07 09:03:30;;;;;;;3.65;2.33;;;23.00;99.90;;;;;;5094638;28;20596;-77
2022/09/07 09:06:26;;;;;;;2.72;2.03;;;22.90;99.90;;;;;;5095170;28;20099;-80
2022/09/07 09:09:22;;;;;;;2.97;2.65;;;22.90;99.90;;;;;;5095258;28;20471;-77
2022/09/07 09:12:14;;;;;;;2.47;2.28;;;23.00;99.90;;;;;;5094984;28;20057;-78
2022/09/07 09:15:08;;;;;;;3.03;2.08;;;23.10;99.90;;;;;;5095224;28;20020;-79
2022/09/07 09:17:40;;;;;;;5.13;2.63;;;23.20;99.90;;;;;;5094887;28;20374;-76
2022/09/07 09:20:35;;;;;;;2.30;2.05;;;23.20;99.90;;;;;;5095204;28;20537;-76
2022/09/07 09:23:11;;;;;;;3.23;2.07;;;23.20;99.90;;;;;;5094969;28;20028;-78
2022/09/07 09:25:46;;;;;;;2.33;2.13;;;23.30;99.90;;;;;;5095224;28;20489;-78
2022/09/07 09:28:12;;;;;;;2.55;2.35;;;23.40;99.90;;;;;;5093536;28;20471;-80
2022/09/07 09:30:37;;;;;;;2.83;2.50;;;23.60;99.90;;;;;;5094720;28;20103;-79
2022/09/07 09:33:24;;;;;;;3.00;2.40;;;23.70;99.90;;;;;;5094806;28;20110;-78
2022/09/07 09:35:52;;;;;;;3.28;2.00;;;23.80;99.90;;;;;;5093321;28;20024;-79
2022/09/07 09:38:39;;;;;;;2.55;1.90;;;23.90;99.90;;;;;;5093115;28;20017;-77
2022/09/07 09:41:11;;;;;;;3.35;2.47;;;24.00;99.90;;;;;;5093053;28;20122;-78
2022/09/07 09:43:46;;;;;;;3.67;1.80;;;24.00;99.90;;;;;;5094252;28;20016;-78
2022/09/07 09:46:21;;;;;;;;;;;24.00;99.90;;;;;;5094818;28;20395;-78
2022/09/07 09:49:10;;;;;;;4.22;2.47;;;24.00;99.90;;;;;;5094160;28;19987;-79
2022/09/07 09:51:41;;;;;;;2.55;2.17;;;24.00;99.90;;;;;;5093443;28;20036;-79
2022/09/07 09:54:24;;;;;;;2.53;2.33;;;24.00;99.90;;;;;;5092919;28;20075;-79
2022/09/07 09:56:51;;;;;;;4.13;2.58;;;24.00;99.90;;;;;;5093284;28;20024;-78
2022/09/07 09:59:16;;;;;;;3.22;2.50;;;24.00;99.90;;;;;;5092933;28;20020;-77
2022/09/07 10:01:43;;;;;;;3.05;1.95;;;24.00;99.90;;;;;;5092547;28;20072;-78
2022/09/07 10:04:32;;;;;;;2.53;2.28;;;24.10;99.90;;;;;;5094387;28;20023;-78
2022/09/07 10:07:24;;;;;;;2.50;2.30;;;24.10;99.90;;;;;;5094230;28;20027;-80
2022/09/07 10:09:52;;;;;;;4.20;2.38;;;24.10;99.90;;;;;;5092741;28;20076;-80
2022/09/07 10:12:31;;;;;;;2.55;2.20;;;24.20;99.90;;;;;;5092522;28;20039;-75
2022/09/07 10:14:59;;;;;;;3.60;2.50;;;24.30;99.90;;;;;;5092622;28;20024;-78
2022/09/07 10:17:32;;;;;;;3.90;2.35;;;24.40;99.90;;;;;;5094148;28;20080;-75
2022/09/07 10:20:14;;;;;;;2.75;2.55;;;24.40;99.90;;;;;;5093437;28;20048;-81
2022/09/07 10:22:44;;;;;;;3.20;1.95;;;24.50;99.90;;;;;;5092478;28;20032;-75
2022/09/07 10:25:32;;;;;;;4.78;2.40;;;24.60;99.90;;;;;;5092351;28;20523;-81
2022/09/07 10:28:13;;;;;;;5.20;2.35;;;24.70;99.90;;;;;;5091427;28;20035;-80
2022/09/07 10:30:53;;;;;;;3.47;2.63;;;24.80;99.90;;;;;;5093628;28;20027;-80
2022/09/07 10:33:29;;;;;;;2.25;2.08;;;24.90;99.90;;;;;;5093442;28;20371;-79
2022/09/07 10:36:09;;;;;;;2.65;2.45;;;25.00;99.80;;;;;;5093615;28;20016;-77
2022/09/07 10:38:53;;;;;;;2.00;1.90;;;25.00;99.90;;;;;;5093332;28;20016;-80
2022/09/07 10:41:24;;;;;;;3.72;2.50;;;25.10;99.90;;;;;;5093378;28;20106;-79
2022/09/07 10:43:51;;;;;;;3.80;2.60;;;25.10;99.90;;;;;;5091791;28;20123;-80
2022/09/07 10:46:25;;;;;;;2.78;2.58;;;25.20;99.40;;;;;;5091906;28;20016;-79
2022/09/07 10:49:03;;;;;;;2.30;2.20;;;25.20;98.70;;;;;;5091929;28;20058;-79
2022/09/07 10:51:36;;;;;;;2.80;2.60;;;25.20;98.90;;;;;;5092961;28;20020;-79
2022/09/07 10:54:21;;;;;;;4.20;2.53;;;25.30;99.10;;;;;;5093068;28;20438;-79
2022/09/07 10:56:47;;;;;;;;;;;25.30;98.50;;;;;;5093562;28;20168;-79
2022/09/07 10:59:34;;;;;;;2.67;2.40;;;25.30;97.90;;;;;;5092920;28;20701;-80
2022/09/07 11:02:18;;;;;;;3.03;2.78;;;25.30;98.80;;;;;;5092706;28;20031;-78
2022/09/07 11:05:09;;;;;;;3.67;2.65;;;25.50;97.80;;;;;;5092932;28;20042;-78
2022/09/07 11:07:59;;;;;;;3.03;2.53;;;25.50;97.50;;;;;;5092666;28;20101;-79
2022/09/07 11:10:31;;;;;;;2.65;2.45;;;25.50;97.50;;;;;;5092895;28;20028;-80
2022/09/07 11:13:00;;;;;;;3.55;2.95;;;25.60;97.50;;;;;;5092536;28;20062;-78
2022/09/07 11:15:30;;;;;;;2.67;2.45;;;25.50;96.50;;;;;;5092748;28;20028;-79
2022/09/07 11:18:13;;;;;;;2.60;2.40;;;25.50;96.90;;;;;;5092698;28;20031;-81
2022/09/07 11:20:57;;;;;;;3.60;2.72;;;25.60;97.60;;;;;;5091686;28;20036;-78
2022/09/07 11:23:36;;;;;;;3.85;2.80;;;25.70;96.90;;;;;;5092838;28;20020;-78
2022/09/07 11:26:13;;;;;;;5.65;2.92;;;25.70;96.60;;;;;;5092666;28;20051;-80
2022/09/07 11:29:05;;;;;;;4.60;2.40;;;25.90;96.70;;;;;;5092588;28;20024;-81
2022/09/07 11:31:41;;;;;;;3.03;2.40;;;25.90;96.50;;;;;;5092164;28;20032;-77
2022/09/07 11:34:30;;;;;;;7.90;2.80;;;26.10;96.40;;;;;;5092065;28;20089;-79
2022/09/07 11:37:05;;;;;;;3.00;2.80;;;26.10;96.20;;;;;;5092273;28;20095;-78
2022/09/07 11:39:39;;;;;;;2.92;2.40;;;26.20;95.30;;;;;;5091372;28;20024;-79
2022/09/07 11:42:28;;;;;;;3.22;2.92;;;26.20;95.90;;;;;;5092207;28;20028;-79
2022/09/07 11:45:23;;;;;;;3.78;2.58;;;26.20;95.20;;;;;;5092279;28;20103;-79
2022/09/07 11:48:19;;;;;;;2.97;2.77;;;26.10;94.50;;;;;;5090865;28;20028;-76
2022/09/07 11:50:50;;;;;;;3.65;2.70;;;26.20;95.00;;;;;;5092215;28;20245;-78
2022/09/07 11:53:22;;;;;;;4.47;3.13;;;26.20;95.00;;;;;;5090934;28;20032;-78
2022/09/07 11:55:54;;;;;;;3.10;2.80;;;26.30;94.00;;;;;;5090822;28;20120;-77
2022/09/07 11:58:48;;;;;;;3.90;2.63;;;26.30;93.20;;;;;;5092170;28;20111;-76
2022/09/07 12:01:53;;;;;;;2.67;2.47;;;26.40;93.10;;;;;;5090829;28;20020;-80
2022/09/07 12:04:38;;;;;;;2.78;2.55;;;26.40;93.30;;;;;;5091709;28;20028;-79
2022/09/07 12:07:10;;;;;;;3.30;3.00;;;26.40;93.00;;;;;;5088090;28;20035;-79
2022/09/07 12:10:06;;;;;;;2.90;2.65;;;26.40;91.90;;;;;;5090817;28;20020;-78
2022/09/07 12:12:59;;;;;;;3.65;2.80;;;26.40;92.80;;;;;;5090890;28;20127;-78
2022/09/07 12:15:56;;;;;;;4.97;3.08;;;26.50;92.70;;;;;;5090495;28;20111;-79
2022/09/07 12:18:37;;;;;;;3.20;2.90;;;26.70;92.50;;;;;;5078764;28;20040;-77
2022/09/07 12:21:03;;;;;;;4.15;2.30;;;26.80;91.70;;;;;;5090640;28;20125;-78
2022/09/07 12:23:30;;;;;;;5.75;2.63;;;26.90;92.00;;;;;;5091958;28;20066;-78
2022/09/07 12:26:36;;;;;;;4.65;3.10;;;26.90;91.70;;;;;;5090638;28;20020;-78
2022/09/07 12:29:03;;;;;;;3.55;2.90;;;26.90;91.10;;;;;;5091700;28;20470;-79
2022/09/07 12:31:50;;;;;;;2.85;2.65;;;26.90;91.70;;;;;;5091839;28;20497;-79
2022/09/07 12:34:30;;;;;;;2.92;2.72;;;27.00;92.50;;;;;;5091703;28;20083;-79
2022/09/07 12:37:01;;;;;;;3.40;3.08;;;27.00;92.20;;;;;;5090565;28;20085;-78
2022/09/07 12:39:31;;;;;;;3.72;3.05;;;27.10;91.90;;;;;;5091869;28;20111;-79
2022/09/07 12:42:09;;;;;;;4.28;3.17;;;27.20;91.80;;;;;;5091975;28;20024;-78
2022/09/07 12:44:36;;;;;;;4.72;2.70;;;27.10;91.50;;;;;;5090551;28;20021;-79
2022/09/07 12:47:17;;;;;;;5.18;3.30;;;27.10;91.50;;;;;;5090541;28;20020;-80
2022/09/07 12:49:59;;;;;;;5.35;3.03;;;27.20;91.00;;;;;;5090807;28;20110;-79
2022/09/07 12:52:24;;;;;;;3.30;3.03;;;27.30;92.10;;;;;;5094047;28;20028;-79
2022/09/07 12:55:01;;;;;;;2.70;2.50;;;27.50;91.30;;;;;;5094207;28;20024;-79
2022/09/07 12:57:38;;;;;;;3.00;2.55;;;27.50;90.50;;;;;;5095210;28;20054;-79
2022/09/07 13:00:24;;;;;;;2.70;2.50;;;27.50;90.60;;;;;;5094271;28;20028;-79
2022/09/07 13:03:09;;;;;;;5.80;2.80;;;27.60;90.50;;;;;;5093944;28;20628;-78
2022/09/07 13:06:03;;;;;;;4.87;3.20;;;27.70;90.80;;;;;;5094063;28;20090;-78
2022/09/07 13:08:38;;;;;;;4.63;2.90;;;27.80;91.50;;;;;;5092967;28;20036;-80
2022/09/07 13:11:33;;;;;;;2.72;2.47;;;28.00;91.80;;;;;;5093890;28;20028;-79
2022/09/07 13:14:13;;;;;;;4.07;2.90;;;28.10;91.20;;;;;;5093731;28;20483;-79
2022/09/07 13:16:40;;;;;;;2.55;2.35;;;28.00;91.10;;;;;;5095182;28;20027;-78